Time;durP1;ratioP1;P1;durP2;ratioP2;P2;SDS_P1;SDS_P2;PMS_P1;PMS_P2;Temp;Humidity;BMP_temperature;BMP_pressure;BME280_temperature;BME280_humidity;BME280_pressure;Samples;Min_cycle;Max_cycle;Signal;HPM_P1;HPM_P2
2022/03/22 00:01:05;;;;;;;0.10;0.10;;;1.50;99.90;226.50;231333.00;;;;5073773;28;20219;-73
2022/03/22 00:03:35;;;;;;;0.10;0.10;;;1.40;99.90;226.50;231333.00;;;;5073878;28;20193;-74
2022/03/22 00:06:03;;;;;;;0.10;0.10;;;1.40;99.90;226.50;231333.00;;;;5073969;28;20678;-74
2022/03/22 00:08:31;;;;;;;0.10;0.10;;;1.30;99.90;226.50;231333.00;;;;5086489;28;20198;-74
2022/03/22 00:10:59;;;;;;;0.10;0.10;;;1.30;1.00;226.50;231333.00;;;;5072910;28;20231;-74
2022/03/22 00:13:28;;;;;;;0.10;0.10;;;1.30;1.00;226.50;231333.00;;;;5073454;28;20252;-72
2022/03/22 00:15:57;;;;;;;0.10;0.10;;;1.20;1.00;226.50;231333.00;;;;5073027;28;20259;-72
2022/03/22 00:18:47;;;;;;;0.10;0.10;;;1.20;1.00;226.50;231333.00;;;;5071345;28;20221;-72
2022/03/22 00:21:18;;;;;;;0.10;0.10;;;1.10;1.00;226.50;231333.00;;;;5063397;28;20630;-73
2022/03/22 00:23:46;;;;;;;0.10;0.10;;;1.10;1.00;226.50;231333.00;;;;5062918;28;20209;-73
2022/03/22 00:26:15;;;;;;;0.10;0.10;;;1.10;1.00;226.50;231333.00;;;;5061970;28;20652;-73
2022/03/22 00:28:43;;;;;;;0.10;0.10;;;1.10;1.00;226.50;231333.00;;;;5076900;28;20198;-73
2022/03/22 00:31:11;;;;;;;0.10;0.10;;;1.20;1.00;226.50;231333.00;;;;5061788;28;20213;-74
2022/03/22 00:33:40;;;;;;;0.10;0.10;;;1.00;1.00;226.50;231333.00;;;;5061443;28;20540;-73
2022/03/22 00:36:10;;;;;;;0.10;0.10;;;1.00;1.00;226.50;231333.00;;;;5061350;28;20223;-73
2022/03/22 00:38:39;;;;;;;0.10;0.10;;;0.90;1.00;226.50;231333.00;;;;5062247;28;20693;-72
2022/03/22 00:41:07;;;;;;;0.10;0.10;;;0.90;1.00;226.50;231333.00;;;;5061648;28;20592;-72
2022/03/22 00:43:36;;;;;;;0.10;0.10;;;1.00;1.00;226.50;231333.00;;;;5061963;28;20193;-73
2022/03/22 00:46:04;;;;;;;0.10;0.10;;;1.00;1.00;226.50;231333.00;;;;5061718;28;20213;-73
2022/03/22 00:48:33;;;;;;;0.10;0.10;;;1.00;1.00;226.50;231333.00;;;;5061711;28;20226;-73
2022/03/22 00:51:01;;;;;;;0.20;0.20;;;1.10;1.00;226.50;231333.00;;;;5064881;28;20597;-72
2022/03/22 00:53:30;;;;;;;0.10;0.10;;;1.10;1.00;226.50;231333.00;;;;5067568;28;20247;-73
2022/03/22 00:56:01;;;;;;;0.10;0.10;;;1.00;1.00;226.50;231333.00;;;;5072402;28;20243;-72
2022/03/22 00:58:29;;;;;;;0.10;0.10;;;0.90;1.00;226.50;231333.00;;;;5071988;28;20186;-74
2022/03/22 01:00:58;;;;;;;0.10;0.10;;;1.00;1.00;226.50;231333.00;;;;5072351;28;20577;-74
2022/03/22 01:03:28;;;;;;;0.20;0.20;;;0.80;1.00;226.50;231333.00;;;;5073233;28;20208;-73
2022/03/22 01:05:59;;;;;;;0.10;0.10;;;0.90;1.00;226.50;231333.00;;;;5071820;28;20197;-72
2022/03/22 01:08:29;;;;;;;0.10;0.10;;;0.90;1.00;226.50;231333.00;;;;5071074;28;20613;-73
2022/03/22 01:10:58;;;;;;;0.10;0.10;;;0.90;1.00;226.50;231333.00;;;;5070470;28;20272;-73
2022/03/22 01:13:28;;;;;;;0.10;0.10;;;0.80;1.00;226.50;231333.00;;;;5072646;28;20194;-73
2022/03/22 01:15:57;;;;;;;0.10;0.10;;;0.80;1.00;226.50;231333.00;;;;5072173;28;20534;-73
2022/03/22 01:18:25;;;;;;;0.10;0.10;;;0.80;1.00;226.50;231333.00;;;;5072304;28;20205;-73
2022/03/22 01:20:53;;;;;;;0.10;0.10;;;0.90;1.00;226.50;231333.00;;;;5072043;28;20198;-73
2022/03/22 01:23:24;;;;;;;0.13;0.13;;;0.90;1.00;226.50;231333.00;;;;5072656;28;20185;-73
2022/03/22 01:25:53;;;;;;;0.10;0.10;;;0.80;1.00;226.50;231333.00;;;;5064541;28;20193;-74
2022/03/22 01:28:22;;;;;;;0.10;0.10;;;0.70;1.00;226.50;231333.00;;;;5072448;28;20244;-73
2022/03/22 01:30:50;;;;;;;0.10;0.10;;;0.60;1.00;226.50;231333.00;;;;5067274;28;20194;-73
2022/03/22 01:33:18;;;;;;;0.10;0.10;;;0.60;1.00;226.50;231333.00;;;;5070644;28;20193;-73
2022/03/22 01:35:46;;;;;;;0.10;0.10;;;0.60;1.00;226.50;231333.00;;;;5065004;28;20229;-72
2022/03/22 01:38:14;;;;;;;0.10;0.10;;;0.60;1.00;226.50;231333.00;;;;5070989;28;20717;-72
2022/03/22 01:40:42;;;;;;;0.10;0.10;;;0.60;1.00;226.50;231333.00;;;;5070865;28;20193;-72
2022/03/22 01:43:11;;;;;;;0.10;0.10;;;0.60;1.00;226.50;231333.00;;;;5071332;28;20225;-72
2022/03/22 01:45:40;;;;;;;0.10;0.10;;;0.70;1.00;226.50;231333.00;;;;5071398;28;20202;-72
2022/03/22 01:48:08;;;;;;;0.10;0.10;;;0.70;1.00;226.50;231333.00;;;;5071448;28;20247;-72
2022/03/22 01:50:37;;;;;;;0.10;0.10;;;0.70;1.00;226.50;231333.00;;;;5071750;28;20202;-72
2022/03/22 01:53:10;;;;;;;0.10;0.10;;;0.60;1.00;226.50;231333.00;;;;5071306;28;20550;-72
2022/03/22 01:55:40;;;;;;;0.20;0.20;;;0.60;1.00;226.50;231333.00;;;;5065469;28;20213;-72
2022/03/22 01:58:07;;;;;;;0.10;0.10;;;0.70;1.00;226.50;231333.00;;;;5071028;28;20243;-72
2022/03/22 02:00:36;;;;;;;0.10;0.10;;;0.70;1.00;226.50;231333.00;;;;5071123;28;20185;-73
2022/03/22 02:05:55;;;;;;;0.10;0.10;;;0.50;1.00;226.50;231333.00;;;;5064500;28;20209;-74
2022/03/22 02:08:29;;;;;;;0.10;0.10;;;0.50;1.00;226.50;231333.00;;;;5060313;28;20190;-74
2022/03/22 02:10:59;;;;;;;0.20;0.20;;;0.40;1.00;226.50;231333.00;;;;5059821;28;20194;-74
2022/03/22 02:13:29;;;;;;;0.10;0.10;;;0.50;1.00;226.50;231333.00;;;;5059685;28;20190;-73
2022/03/22 02:16:01;;;;;;;0.10;0.10;;;0.50;1.00;226.50;231333.00;;;;5059841;28;20263;-73
2022/03/22 02:18:32;;;;;;;0.10;0.10;;;0.60;1.00;226.50;231333.00;;;;5060128;28;20195;-72
2022/03/22 02:21:02;;;;;;;0.10;0.10;;;0.60;1.00;226.50;231333.00;;;;5061517;28;20202;-71
2022/03/22 02:23:52;;;;;;;0.10;0.10;;;0.70;1.00;226.50;231333.00;;;;5059977;28;20487;-71
2022/03/22 02:26:22;;;;;;;0.10;0.10;;;0.60;1.00;226.50;231333.00;;;;5059930;28;20613;-72
2022/03/22 02:28:53;;;;;;;0.13;0.13;;;0.50;1.00;226.50;231333.00;;;;5059030;28;20689;-72
2022/03/22 02:31:23;;;;;;;0.10;0.10;;;0.50;1.00;226.50;231333.00;;;;5059672;28;20221;-74
2022/03/22 02:33:52;;;;;;;0.10;0.10;;;0.40;1.00;226.50;231333.00;;;;5060577;28;20198;-72
2022/03/22 02:36:20;;;;;;;0.10;0.10;;;0.50;1.00;226.50;231333.00;;;;5064369;28;20221;-71
2022/03/22 02:38:51;;;;;;;0.10;0.10;;;0.40;1.00;226.50;231333.00;;;;5072958;28;20201;-71
2022/03/22 02:41:22;;;;;;;0.10;0.10;;;0.40;1.00;226.50;231333.00;;;;5068792;28;20742;-71
2022/03/22 02:43:51;;;;;;;0.10;0.10;;;0.40;1.00;226.50;231333.00;;;;5075417;28;20194;-73
2022/03/22 02:46:21;;;;;;;0.10;0.10;;;0.40;1.00;226.50;231333.00;;;;5073840;28;20197;-71
2022/03/22 02:48:49;;;;;;;0.10;0.10;;;0.30;1.00;226.50;231333.00;;;;5069795;28;20201;-74
2022/03/22 02:51:17;;;;;;;0.10;0.10;;;0.10;1.00;226.50;231333.00;;;;5065484;28;20678;-73
2022/03/22 02:53:45;;;;;;;0.10;0.10;;;0.10;1.00;226.50;231333.00;;;;5061885;28;20201;-75
2022/03/22 02:56:15;;;;;;;0.10;0.10;;;0.10;1.00;226.50;231333.00;;;;5059294;28;20269;-75
2022/03/22 02:58:43;;;;;;;0.10;0.10;;;0.10;1.00;226.50;231333.00;;;;5059967;28;20670;-74
2022/03/22 03:01:11;;;;;;;0.13;0.13;;;0.10;1.00;226.50;231333.00;;;;5059473;28;20230;-74
2022/03/22 03:03:39;;;;;;;0.10;0.10;;;0.00;1.00;226.50;231333.00;;;;5059109;28;20187;-74
2022/03/22 03:06:07;;;;;;;0.10;0.10;;;0.00;1.00;226.50;231333.00;;;;5074482;28;20198;-74
2022/03/22 03:08:35;;;;;;;0.10;0.10;;;0.00;1.00;226.50;231333.00;;;;5059175;28;20248;-74
2022/03/22 03:11:04;;;;;;;0.10;0.10;;;0.10;1.00;226.50;231333.00;;;;5058943;28;20181;-73
2022/03/22 03:16:16;;;;;;;0.10;0.10;;;0.00;1.00;226.50;231333.00;;;;5059593;28;20306;-73
2022/03/22 03:18:44;;;;;;;0.10;0.10;;;0.00;1.00;226.50;231333.00;;;;5059022;28;20608;-73
2022/03/22 03:21:12;;;;;;;0.10;0.10;;;0.00;1.00;226.50;231333.00;;;;5059660;28;20586;-73
2022/03/22 03:23:40;;;;;;;0.10;0.10;;;0.00;1.00;226.50;231333.00;;;;5063426;28;20186;-72
2022/03/22 03:26:09;;;;;;;0.10;0.10;;;0.00;1.00;226.50;231333.00;;;;5062432;28;20232;-72
2022/03/22 03:28:38;;;;;;;0.10;0.10;;;-0.10;1.00;226.50;231333.00;;;;5062452;28;20220;-72
2022/03/22 03:31:06;;;;;;;0.20;0.20;;;-0.20;1.00;226.50;231333.00;;;;5062272;28;20260;-73
2022/03/22 03:33:34;;;;;;;0.10;0.10;;;-0.20;1.00;226.50;231333.00;;;;5063007;28;20193;-72
2022/03/22 03:36:02;;;;;;;0.10;0.10;;;-0.30;1.00;226.50;231333.00;;;;5062366;28;20202;-72
2022/03/22 03:38:30;;;;;;;0.10;0.10;;;-0.40;1.00;226.50;231333.00;;;;5064384;28;20223;-73
2022/03/22 03:43:45;;;;;;;0.10;0.10;;;-0.40;1.00;226.50;231333.00;;;;5064094;28;20194;-72
2022/03/22 03:48:59;;;;;;;0.10;0.10;;;-0.20;1.00;226.50;231333.00;;;;5063830;28;20205;-75
2022/03/22 03:51:29;;;;;;;0.10;0.10;;;-0.20;1.00;226.50;231333.00;;;;5063513;28;20218;-74
2022/03/22 03:53:58;;;;;;;0.10;0.10;;;-0.20;1.00;226.50;231333.00;;;;5062806;28;20209;-73
2022/03/22 03:56:26;;;;;;;0.10;0.10;;;-0.10;1.00;226.50;231333.00;;;;5062547;28;20275;-72
2022/03/22 03:58:56;;;;;;;0.10;0.10;;;-0.10;1.00;226.50;231333.00;;;;5078455;28;20203;-73
2022/03/22 04:01:25;;;;;;;0.15;0.15;;;0.00;1.00;226.50;231333.00;;;;5062046;28;20226;-73
2022/03/22 04:03:53;;;;;;;0.10;0.10;;;0.00;1.00;226.50;231333.00;;;;5063528;28;20201;-73
2022/03/22 04:06:21;;;;;;;0.13;0.13;;;-0.10;1.00;226.50;231333.00;;;;5063001;28;20206;-74
2022/03/22 04:08:49;;;;;;;0.10;0.10;;;-0.10;1.00;226.50;231333.00;;;;5061600;28;20668;-74
2022/03/22 04:11:17;;;;;;;0.10;0.10;;;-0.10;1.00;226.50;231333.00;;;;5062542;28;20222;-74
2022/03/22 04:13:45;;;;;;;0.10;0.10;;;-0.10;1.00;226.50;231333.00;;;;5066981;28;20227;-76
2022/03/22 04:16:15;;;;;;;0.20;0.20;;;-0.10;1.00;226.50;231333.00;;;;5074098;28;20736;-76
2022/03/22 04:18:43;;;;;;;0.10;0.10;;;-0.10;1.00;226.50;231333.00;;;;5073047;28;20575;-76
2022/03/22 04:21:11;;;;;;;0.15;0.15;;;-0.20;1.00;226.50;231333.00;;;;5071252;28;20222;-75
2022/03/22 04:23:39;;;;;;;0.15;0.15;;;-0.10;1.00;226.50;231333.00;;;;5072706;28;20247;-73
2022/03/22 04:26:07;;;;;;;0.10;0.10;;;-0.30;1.00;226.50;231333.00;;;;5074652;28;20246;-73
2022/03/22 04:34:08;;;;;;;0.10;0.10;;;-0.40;1.00;226.50;231333.00;;;;5072256;28;20523;-74
2022/03/22 04:36:36;;;;;;;0.10;0.10;;;-0.40;1.00;226.50;231333.00;;;;5073464;28;20215;-73
2022/03/22 04:39:04;;;;;;;0.10;0.10;;;-0.50;1.00;226.50;231333.00;;;;5070829;28;20666;-73
2022/03/22 04:41:32;;;;;;;0.10;0.10;;;-0.50;1.00;226.50;231333.00;;;;5071387;28;20729;-73
2022/03/22 04:44:01;;;;;;;0.10;0.10;;;-0.40;1.00;226.50;231333.00;;;;5072562;28;20201;-73
2022/03/22 04:46:30;;;;;;;0.10;0.10;;;-0.40;1.00;226.50;231333.00;;;;5071975;28;20197;-74
2022/03/22 04:48:58;;;;;;;0.15;0.15;;;-0.40;1.00;226.50;231333.00;;;;5072435;28;20566;-74
2022/03/22 04:56:57;;;;;;;0.15;0.15;;;-0.50;1.00;226.50;231333.00;;;;5069410;28;20736;-74
2022/03/22 04:59:25;;;;;;;0.10;0.10;;;-0.60;1.00;226.50;231333.00;;;;5072564;28;20190;-73
2022/03/22 05:01:54;;;;;;;0.10;0.10;;;-0.60;1.00;226.50;231333.00;;;;5070212;28;20363;-74
2022/03/22 05:04:22;;;;;;;0.15;0.15;;;-0.60;1.00;226.50;231333.00;;;;5072506;28;20213;-74
2022/03/22 05:06:50;;;;;;;0.20;0.20;;;-0.50;99.90;226.50;231333.00;;;;5072366;28;20719;-74
2022/03/22 05:09:18;;;;;;;0.13;0.13;;;-0.60;1.00;226.50;231333.00;;;;5072766;28;20682;-73
2022/03/22 05:11:46;;;;;;;0.10;0.10;;;-0.70;1.00;226.50;231333.00;;;;5072446;28;20206;-74
2022/03/22 05:14:14;;;;;;;0.10;0.10;;;-0.60;1.00;226.50;231333.00;;;;5072114;28;20543;-74
2022/03/22 05:16:45;;;;;;;0.20;0.20;;;-0.60;1.00;226.50;231333.00;;;;5071607;28;20190;-73
2022/03/22 05:19:15;;;;;;;0.10;0.10;;;-0.40;99.90;226.50;231333.00;;;;5072371;28;20190;-73
2022/03/22 05:21:43;;;;;;;0.20;0.20;;;-0.60;1.00;226.50;231333.00;;;;5072043;28;20706;-72
2022/03/22 05:24:12;;;;;;;0.20;0.20;;;-0.60;1.00;226.50;231333.00;;;;5071405;28;20193;-73
2022/03/22 05:26:40;;;;;;;0.15;0.15;;;-0.70;99.90;226.50;231333.00;;;;5072268;28;20193;-74
2022/03/22 05:29:08;;;;;;;0.20;0.20;;;-0.70;1.00;226.50;231333.00;;;;5073208;28;20227;-73
2022/03/22 05:31:36;;;;;;;0.20;0.20;;;-0.60;1.00;226.50;231333.00;;;;5072281;28;20212;-73
2022/03/22 05:34:04;;;;;;;0.10;0.10;;;-0.70;99.90;226.50;231333.00;;;;5072855;28;20186;-73
2022/03/22 05:36:34;;;;;;;0.20;0.20;;;-0.70;1.00;226.50;231333.00;;;;5075617;28;20193;-73
2022/03/22 05:39:02;;;;;;;0.10;0.10;;;-0.70;99.90;226.50;231333.00;;;;5076537;28;20217;-75
2022/03/22 05:41:30;;;;;;;0.20;0.20;;;-0.60;99.90;226.50;231333.00;;;;5077057;28;20225;-74
2022/03/22 05:43:58;;;;;;;0.10;0.10;;;-0.60;99.90;226.50;231333.00;;;;5078065;28;20189;-74
2022/03/22 05:46:26;;;;;;;0.10;0.10;;;-0.60;99.90;226.50;231333.00;;;;5081260;28;20190;-73
2022/03/22 05:48:54;;;;;;;0.20;0.20;;;-0.60;99.90;226.50;231333.00;;;;5076933;28;20190;-74
2022/03/22 05:51:23;;;;;;;0.10;0.10;;;-0.40;99.90;226.50;231333.00;;;;5072873;28;20217;-75
2022/03/22 05:53:52;;;;;;;0.13;0.13;;;-0.30;1.00;226.50;231333.00;;;;5071880;28;20593;-73
2022/03/22 05:56:20;;;;;;;0.20;0.20;;;-0.30;1.00;226.50;231333.00;;;;5071318;28;20190;-74
2022/03/22 05:58:48;;;;;;;0.20;0.20;;;-0.50;1.00;226.50;231333.00;;;;5071502;28;20218;-74
2022/03/22 06:01:17;;;;;;;0.10;0.10;;;-0.40;92.20;226.50;231333.00;;;;5066988;28;20316;-72
2022/03/22 06:03:45;;;;;;;0.20;0.20;;;-0.40;1.00;226.50;231333.00;;;;5071180;28;20622;-73
2022/03/22 06:06:13;;;;;;;0.10;0.10;;;-0.40;1.00;226.50;231333.00;;;;5071501;28;20728;-74
2022/03/22 06:08:41;;;;;;;0.20;0.20;;;-0.30;1.00;226.50;231333.00;;;;5071498;28;20189;-75
2022/03/22 06:11:10;;;;;;;0.10;0.10;;;-0.30;1.00;226.50;231333.00;;;;5071904;28;20193;-77
2022/03/22 06:13:38;;;;;;;0.10;0.10;;;-0.10;1.00;226.50;231333.00;;;;5077401;28;20202;-74
2022/03/22 06:16:06;;;;;;;0.10;0.10;;;-0.20;1.00;226.50;231333.00;;;;5071850;28;20197;-75
2022/03/22 06:18:34;;;;;;;0.10;0.10;;;-0.20;1.00;226.50;231333.00;;;;5067091;28;20733;-75
2022/03/22 06:21:02;;;;;;;0.10;0.10;;;-0.20;1.00;226.50;231333.00;;;;5067524;28;20198;-75
2022/03/22 06:23:30;;;;;;;0.10;0.10;;;0.00;1.00;226.50;231333.00;;;;5068795;28;20220;-75
2022/03/22 06:25:59;;;;;;;0.17;0.17;;;0.10;1.00;226.50;231333.00;;;;5066517;28;20942;-75
2022/03/22 06:28:29;;;;;;;0.13;0.13;;;0.20;1.00;226.50;231333.00;;;;5069470;28;20251;-75
2022/03/22 06:30:57;;;;;;;0.10;0.10;;;0.20;99.90;226.50;231333.00;;;;5067279;28;20194;-75
2022/03/22 06:33:25;;;;;;;0.10;0.10;;;0.30;99.90;226.50;231333.00;;;;5063323;28;20532;-75
2022/03/22 06:35:54;;;;;;;0.20;0.20;;;0.40;99.90;226.50;231333.00;;;;5059335;28;20198;-75
2022/03/22 06:38:22;;;;;;;0.10;0.10;;;0.50;9.60;226.50;231333.00;;;;5067098;28;20218;-76
2022/03/22 06:40:50;;;;;;;0.10;0.10;;;0.60;1.00;226.50;231333.00;;;;5070612;28;20196;-76
2022/03/22 06:43:20;;;;;;;0.10;0.10;;;0.70;1.00;226.50;231333.00;;;;5060951;28;20194;-75
2022/03/22 06:45:50;;;;;;;0.10;0.10;;;0.80;1.00;226.50;231333.00;;;;5060425;28;20186;-75
2022/03/22 06:48:18;;;;;;;0.10;0.10;;;0.90;99.90;226.50;231333.00;;;;5060639;28;20185;-76
2022/03/22 06:50:49;;;;;;;0.10;0.10;;;1.10;99.90;226.50;231333.00;;;;5059197;28;20300;-75
2022/03/22 06:53:18;;;;;;;0.10;0.10;;;1.20;1.00;226.50;231333.00;;;;5076761;28;20867;-76
2022/03/22 06:55:46;;;;;;;0.10;0.10;;;1.30;1.00;226.50;231333.00;;;;5062079;28;20205;-75
2022/03/22 06:58:18;;;;;;;0.10;0.10;;;1.50;99.90;226.50;231333.00;;;;5060828;28;20221;-75
2022/03/22 07:00:46;;;;;;;0.10;0.10;;;1.50;99.90;226.50;231333.00;;;;5077779;28;20608;-75
2022/03/22 07:03:16;;;;;;;0.10;0.10;;;1.70;1.00;226.50;231333.00;;;;5062987;28;20229;-77
2022/03/22 07:05:46;;;;;;;0.10;0.10;;;1.80;99.90;226.50;231333.00;;;;5088255;28;20197;-75
2022/03/22 07:08:15;;;;;;;0.10;0.10;;;2.00;1.00;226.50;231333.00;;;;5072568;28;20190;-75
2022/03/22 07:11:47;;;;;;;0.10;0.10;;;2.10;1.00;226.50;231333.00;;;;5073192;28;20190;-76
2022/03/22 07:13:32;;;;;;;0.13;0.13;;;2.30;1.00;226.50;231333.00;;;;5071845;28;20438;-75
2022/03/22 07:16:01;;;;;;;0.10;0.10;;;2.50;1.00;226.50;231333.00;;;;5071135;28;20194;-75
2022/03/22 07:18:30;;;;;;;0.10;0.10;;;2.70;99.90;226.50;231333.00;;;;5070345;28;20224;-74
2022/03/22 07:20:59;;;;;;;0.10;0.10;;;2.90;1.00;226.50;231333.00;;;;5070019;28;20186;-75
2022/03/22 07:23:27;;;;;;;0.10;0.10;;;3.10;99.90;226.50;231333.00;;;;5062714;28;20202;-75
2022/03/22 07:25:55;;;;;;;0.10;0.10;;;3.30;1.00;226.50;231333.00;;;;5058908;28;20267;-75
2022/03/22 07:28:23;;;;;;;0.00;0.00;;;3.50;1.00;226.50;231333.00;;;;5059431;28;20252;-74
2022/03/22 07:30:51;;;;;;;0.10;0.10;;;3.70;1.00;226.50;231333.00;;;;5060335;28;20288;-74
2022/03/22 07:33:19;;;;;;;0.10;0.10;;;3.90;99.90;226.50;231333.00;;;;5059740;28;20309;-74
2022/03/22 07:35:49;;;;;;;0.10;0.10;;;4.20;99.90;226.50;231333.00;;;;5060617;28;20209;-74
2022/03/22 07:38:17;;;;;;;0.10;0.10;;;4.40;99.90;226.50;231333.00;;;;5059298;28;20251;-74
2022/03/22 07:40:45;;;;;;;0.05;0.05;;;4.70;26.30;226.50;231333.00;;;;5059886;28;20190;-74
2022/03/22 07:43:13;;;;;;;0.10;0.10;;;5.00;5.30;226.50;231333.00;;;;5059902;28;20221;-74
2022/03/22 07:45:41;;;;;;;0.10;0.10;;;5.20;1.00;226.50;231333.00;;;;5059930;28;20225;-74
2022/03/22 07:48:09;;;;;;;0.10;0.10;;;5.50;1.00;226.50;231333.00;;;;5059774;28;20202;-74
2022/03/22 07:53:30;;;;;;;0.08;0.08;;;5.80;1.00;226.50;231333.00;;;;5020690;28;20739;-74
2022/03/22 07:55:58;;;;;;;0.10;0.10;;;6.10;1.00;226.50;231333.00;;;;5059338;28;20203;-74
2022/03/22 07:58:26;;;;;;;0.10;0.10;;;6.20;1.00;226.50;231333.00;;;;5059059;28;20256;-74
2022/03/22 08:00:55;;;;;;;0.10;0.10;;;6.30;1.00;226.50;231333.00;;;;5058921;28;20679;-74
2022/03/22 08:03:23;;;;;;;0.10;0.10;;;6.50;1.00;226.50;231333.00;;;;5058753;28;20200;-74
2022/03/22 08:05:53;;;;;;;0.10;0.10;;;6.60;1.00;226.50;231333.00;;;;5058802;28;20191;-75
2022/03/22 08:08:27;;;;;;;0.10;0.10;;;6.80;1.00;226.50;231333.00;;;;5061907;28;20675;-74
2022/03/22 08:11:05;;;;;;;0.10;0.10;;;6.90;1.00;226.50;231333.00;;;;5061828;28;20297;-75
2022/03/22 08:13:35;;;;;;;0.10;0.10;;;6.90;1.00;226.50;231333.00;;;;5062628;28;20202;-73
2022/03/22 08:16:04;;;;;;;0.10;0.10;;;7.00;1.00;226.50;231333.00;;;;5073544;28;20565;-74
2022/03/22 08:18:32;;;;;;;0.00;0.00;;;7.20;1.00;226.50;231333.00;;;;5073527;28;20206;-74
2022/03/22 08:21:00;;;;;;;0.10;0.10;;;7.40;1.00;226.50;231333.00;;;;5062294;28;20201;-74
2022/03/22 08:23:28;;;;;;;0.10;0.10;;;7.60;1.00;226.50;231333.00;;;;5072920;28;20190;-75
2022/03/22 08:25:56;;;;;;;0.10;0.10;;;7.70;1.00;226.50;231333.00;;;;5072301;28;20227;-74
2022/03/22 08:28:26;;;;;;;0.10;0.10;;;7.90;1.00;226.50;231333.00;;;;5073138;28;20247;-73
2022/03/22 08:30:54;;;;;;;0.10;0.10;;;7.90;1.00;226.50;231333.00;;;;5069276;28;20224;-74
2022/03/22 08:33:23;;;;;;;0.10;0.10;;;8.00;1.00;226.50;231333.00;;;;5073429;28;20197;-73
2022/03/22 08:35:52;;;;;;;0.10;0.10;;;8.00;1.00;226.50;231333.00;;;;5072932;28;20741;-72
2022/03/22 08:38:24;;;;;;;0.10;0.10;;;8.10;1.00;226.50;231333.00;;;;5071506;28;20225;-73
2022/03/22 08:40:56;;;;;;;0.10;0.10;;;8.20;1.00;226.50;231333.00;;;;5073048;28;20221;-73
2022/03/22 08:43:26;;;;;;;0.10;0.10;;;8.30;1.00;226.50;231333.00;;;;5062898;28;20201;-74
2022/03/22 08:45:55;;;;;;;0.10;0.10;;;8.40;1.00;226.50;231333.00;;;;5061732;28;20190;-74
2022/03/22 08:48:24;;;;;;;0.10;0.10;;;8.50;1.00;226.50;231333.00;;;;5073149;28;20233;-74
2022/03/22 08:50:53;;;;;;;0.10;0.10;;;8.50;1.00;226.50;231333.00;;;;5073916;28;20259;-73
2022/03/22 08:53:23;;;;;;;0.10;0.10;;;8.70;1.00;226.50;231333.00;;;;5074495;28;20189;-73
2022/03/22 08:55:53;;;;;;;0.10;0.10;;;8.70;1.00;226.50;231333.00;;;;5073515;28;20190;-73
2022/03/22 08:58:21;;;;;;;0.10;0.10;;;8.80;1.00;226.50;231333.00;;;;5074275;28;20251;-71
2022/03/22 09:00:51;;;;;;;0.10;0.10;;;8.90;1.00;226.50;231333.00;;;;5069281;28;20584;-71
2022/03/22 09:03:21;;;;;;;0.10;0.10;;;8.90;1.00;226.50;231333.00;;;;5072934;28;20268;-73
2022/03/22 09:08:36;;;;;;;0.10;0.10;;;9.20;1.00;226.50;231333.00;;;;5070585;28;20233;-72
2022/03/22 09:11:04;;;;;;;0.10;0.10;;;9.30;1.00;226.50;231333.00;;;;5071373;28;20709;-72
2022/03/22 09:13:39;;;;;;;0.10;0.10;;;9.50;1.00;226.50;231333.00;;;;5069039;28;20198;-72
2022/03/22 09:16:13;;;;;;;0.10;0.10;;;9.60;1.00;226.50;231333.00;;;;5071492;28;20201;-72
2022/03/22 09:18:43;;;;;;;0.10;0.10;;;9.60;1.00;226.50;231333.00;;;;5073077;28;20536;-72
2022/03/22 09:21:11;;;;;;;0.00;0.00;;;9.80;1.00;226.50;231333.00;;;;5071739;28;20229;-72
2022/03/22 09:23:41;;;;;;;0.10;0.10;;;9.80;1.00;226.50;231333.00;;;;5071933;28;20194;-71
2022/03/22 09:26:10;;;;;;;0.10;0.10;;;9.80;1.00;226.50;231333.00;;;;5071593;28;20193;-71
2022/03/22 09:28:39;;;;;;;0.10;0.10;;;9.90;1.00;226.50;231333.00;;;;5071121;28;20197;-71
2022/03/22 09:31:10;;;;;;;0.08;0.08;;;9.90;1.00;226.50;231333.00;;;;5065084;28;20646;-72
2022/03/22 09:33:38;;;;;;;0.10;0.10;;;10.00;1.00;226.50;231333.00;;;;5085189;28;20202;-71
2022/03/22 09:36:07;;;;;;;0.10;0.10;;;10.10;1.00;226.50;231333.00;;;;5070939;28;20194;-72
2022/03/22 09:38:37;;;;;;;0.10;0.10;;;10.20;1.00;226.50;231333.00;;;;5070953;28;20206;-73
2022/03/22 09:41:07;;;;;;;0.10;0.10;;;10.20;1.00;226.50;231333.00;;;;5071603;28;20690;-73
2022/03/22 09:43:37;;;;;;;0.10;0.10;;;10.40;1.00;226.50;231333.00;;;;5070134;28;20194;-73
2022/03/22 09:46:08;;;;;;;0.10;0.10;;;10.50;1.00;226.50;231333.00;;;;5071371;28;20283;-73
2022/03/22 09:48:38;;;;;;;0.10;0.10;;;10.70;1.00;226.50;231333.00;;;;5072376;28;20189;-72
2022/03/22 09:53:53;;;;;;;0.10;0.10;;;10.80;1.00;226.50;231333.00;;;;5072129;28;20190;-73
2022/03/22 09:56:22;;;;;;;0.10;0.10;;;10.90;1.00;226.50;231333.00;;;;5070470;28;20200;-73
2022/03/22 09:58:51;;;;;;;0.10;0.10;;;11.00;1.00;226.50;231333.00;;;;5070023;28;20596;-73
2022/03/22 10:01:21;;;;;;;0.10;0.10;;;11.10;1.00;226.50;231333.00;;;;5069425;28;20225;-74
2022/03/22 10:04:00;;;;;;;0.00;0.00;;;11.20;1.00;226.50;231333.00;;;;5071434;28;20194;-72
2022/03/22 10:06:29;;;;;;;0.10;0.10;;;11.30;1.00;226.50;231333.00;;;;5062681;28;20203;-73
2022/03/22 10:08:58;;;;;;;0.10;0.10;;;11.50;1.00;226.50;231333.00;;;;5071890;28;20578;-72
2022/03/22 10:11:37;;;;;;;0.10;0.10;;;11.60;1.00;226.50;231333.00;;;;5086979;28;20209;-73
2022/03/22 10:14:07;;;;;;;0.10;0.10;;;11.60;1.00;226.50;231333.00;;;;5071302;28;20193;-72
2022/03/22 10:16:46;;;;;;;0.10;0.10;;;11.80;1.00;226.50;231333.00;;;;5070145;28;20277;-71
2022/03/22 10:19:21;;;;;;;0.10;0.10;;;11.80;1.00;226.50;231333.00;;;;5071575;28;20220;-75
2022/03/22 10:21:50;;;;;;;0.10;0.10;;;11.90;1.00;226.50;231333.00;;;;5063460;28;20592;-73
2022/03/22 10:24:19;;;;;;;0.10;0.10;;;11.90;1.00;226.50;231333.00;;;;5072244;28;20186;-74
2022/03/22 10:26:48;;;;;;;0.10;0.10;;;11.90;1.00;226.50;231333.00;;;;5071261;28;20223;-73
2022/03/22 10:29:17;;;;;;;0.10;0.10;;;12.10;1.00;226.50;231333.00;;;;5071418;28;20276;-73
2022/03/22 10:31:46;;;;;;;0.10;0.10;;;12.30;1.00;226.50;231333.00;;;;5068843;28;20226;-73
2022/03/22 10:34:16;;;;;;;0.10;0.10;;;12.40;1.00;226.50;231333.00;;;;5071257;28;20246;-73
2022/03/22 10:36:45;;;;;;;0.10;0.10;;;12.50;1.00;226.50;231333.00;;;;5070379;28;20198;-72
2022/03/22 10:39:14;;;;;;;0.00;0.00;;;12.70;1.00;226.50;231333.00;;;;5071172;28;20256;-73
2022/03/22 10:41:45;;;;;;;0.10;0.10;;;12.90;1.00;226.50;231333.00;;;;5086489;28;20225;-74
2022/03/22 10:44:17;;;;;;;0.10;0.10;;;12.90;1.00;226.50;231333.00;;;;5087177;28;20194;-74
2022/03/22 10:46:48;;;;;;;0.10;0.10;;;13.00;1.00;226.50;231333.00;;;;5069547;28;20190;-73
2022/03/22 10:49:19;;;;;;;0.10;0.10;;;13.20;1.00;226.50;231333.00;;;;5071039;28;20194;-76
2022/03/22 10:52:10;;;;;;;0.10;0.10;;;13.40;1.00;226.50;231333.00;;;;5070310;28;20221;-73
2022/03/22 10:54:38;;;;;;;0.10;0.10;;;13.50;1.00;226.50;231333.00;;;;5063700;28;20197;-72
2022/03/22 10:57:08;;;;;;;0.10;0.10;;;13.50;1.00;226.50;231333.00;;;;5070256;28;20454;-72
2022/03/22 10:59:39;;;;;;;0.10;0.10;;;13.50;1.00;226.50;231333.00;;;;5071336;28;20202;-71
2022/03/22 11:02:08;;;;;;;0.10;0.10;;;13.80;1.00;226.50;231333.00;;;;5071009;28;20709;-72
2022/03/22 11:04:40;;;;;;;0.10;0.10;;;14.00;1.00;226.50;231333.00;;;;5070909;28;20198;-71
2022/03/22 11:07:12;;;;;;;0.10;0.10;;;14.10;1.00;226.50;231333.00;;;;5069962;28;20212;-72
2022/03/22 11:09:42;;;;;;;0.10;0.10;;;14.20;1.00;226.50;231333.00;;;;5070965;28;20193;-71
2022/03/22 11:12:11;;;;;;;0.00;0.00;;;14.30;1.00;226.50;231333.00;;;;5070070;28;20223;-70
2022/03/22 11:14:39;;;;;;;0.03;0.03;;;14.50;1.00;226.50;231333.00;;;;5070263;28;20193;-70
2022/03/22 11:17:08;;;;;;;0.00;0.00;;;15.20;1.00;226.50;231333.00;;;;5069931;28;20608;-71
2022/03/22 11:19:36;;;;;;;0.10;0.10;;;15.50;1.00;226.50;231333.00;;;;5070746;28;20201;-72
2022/03/22 11:22:06;;;;;;;0.10;0.10;;;15.70;1.00;226.50;231333.00;;;;5068369;28;20952;-71
2022/03/22 11:24:37;;;;;;;0.00;0.00;;;15.80;1.00;226.50;231333.00;;;;5064781;28;20205;-74
2022/03/22 11:27:08;;;;;;;0.10;0.10;;;16.00;1.00;226.50;231333.00;;;;5056639;28;20197;-71
2022/03/22 11:29:39;;;;;;;0.00;0.00;;;16.30;1.00;226.50;231333.00;;;;5068322;28;20197;-72